Time;durP1;ratioP1;P1;durP2;ratioP2;P2;SDS_P1;SDS_P2;PMS_P1;PMS_P2;Temp;Humidity;BMP_temperature;BMP_pressure;BME280_temperature;BME280_humidity;BME280_pressure;Samples;Min_cycle;Max_cycle;Signal;HPM_P1;HPM_P2
2021/08/26 00:06:15;;;;;;;7.63;5.60;;;15.60;98.60;;;;;;6353350;28;20467;-63
2021/08/26 00:09:19;;;;;;;8.20;4.87;;;15.60;98.80;;;;;;6352501;28;20979;-63
2021/08/26 00:12:23;;;;;;;7.03;5.30;;;15.60;98.80;;;;;;6352633;28;20474;-63
2021/08/26 00:15:26;;;;;;;5.30;4.77;;;15.60;98.80;;;;;;6352518;28;20467;-64
2021/08/26 00:18:31;;;;;;;8.87;5.60;;;15.50;98.90;;;;;;6352651;28;20486;-64
2021/08/26 00:21:34;;;;;;;9.43;6.00;;;15.50;99.00;;;;;;6352520;28;20467;-64
2021/08/26 00:24:38;;;;;;;7.17;5.60;;;15.50;99.10;;;;;;6352519;27;20467;-65
2021/08/26 00:27:41;;;;;;;7.63;5.90;;;15.40;99.00;;;;;;6352022;27;20790;-64
2021/08/26 00:30:44;;;;;;;7.30;5.17;;;15.40;99.00;;;;;;6352483;28;20475;-64
2021/08/26 00:33:49;;;;;;;8.43;4.90;;;15.30;99.10;;;;;;6349739;28;20471;-64
2021/08/26 00:36:52;;;;;;;7.37;5.10;;;15.30;99.20;;;;;;6349714;28;20482;-64
2021/08/26 00:39:55;;;;;;;7.90;5.70;;;15.30;99.40;;;;;;6351989;28;20489;-65
2021/08/26 00:42:59;;;;;;;5.67;4.90;;;15.20;99.40;;;;;;6352088;28;20471;-64
2021/08/26 00:46:03;;;;;;;8.03;5.20;;;15.20;99.50;;;;;;6351861;27;20995;-64
2021/08/26 00:49:11;;;;;;;7.13;5.40;;;15.20;99.70;;;;;;6351889;28;20483;-64
2021/08/26 00:52:14;;;;;;;5.63;5.07;;;15.20;99.60;;;;;;6351796;28;20482;-64
2021/08/26 00:55:18;;;;;;;6.63;5.67;;;15.20;99.80;;;;;;6351724;28;20479;-64
2021/08/26 00:58:21;;;;;;;6.23;5.10;;;15.20;99.90;;;;;;6351744;28;20471;-64
2021/08/26 01:01:31;;;;;;;5.70;5.13;;;15.20;99.90;;;;;;6348184;28;20474;-64
2021/08/26 01:04:39;;;;;;;8.40;5.93;;;15.10;99.80;;;;;;6351414;28;20477;-64
2021/08/26 01:07:48;;;;;;;10.00;5.60;;;15.10;99.70;;;;;;6350820;28;20476;-64
2021/08/26 01:10:56;;;;;;;7.57;5.70;;;15.00;99.70;;;;;;6351493;28;20472;-64
2021/08/26 01:14:00;;;;;;;6.67;5.97;;;15.00;99.90;;;;;;6351102;28;20474;-64
2021/08/26 01:17:04;;;;;;;6.53;5.40;;;15.00;99.90;;;;;;6351257;28;20475;-64
2021/08/26 01:20:09;;;;;;;6.27;5.10;;;15.00;99.90;;;;;;6350684;28;20871;-64
2021/08/26 01:23:12;;;;;;;8.30;5.17;;;14.90;99.90;;;;;;6351079;28;20482;-64
2021/08/26 01:26:23;;;;;;;6.00;5.20;;;15.00;99.90;;;;;;6342931;28;20467;-64
2021/08/26 01:29:26;;;;;;;6.50;5.73;;;15.00;99.90;;;;;;6334797;28;20465;-64
2021/08/26 01:32:30;;;;;;;8.90;5.40;;;14.90;99.90;;;;;;6340624;28;20823;-63
2021/08/26 01:35:33;;;;;;;9.30;6.20;;;14.90;99.90;;;;;;6338410;27;20440;-64
2021/08/26 01:38:36;;;;;;;6.93;5.60;;;14.90;99.90;;;;;;6333490;28;20456;-64
2021/08/26 01:41:43;;;;;;;6.77;5.57;;;14.80;99.90;;;;;;6338951;28;20431;-64
2021/08/26 01:44:46;;;;;;;5.27;4.77;;;14.80;99.90;;;;;;6336462;28;20881;-64
2021/08/26 01:47:49;;;;;;;6.10;5.50;;;14.90;99.90;;;;;;6338971;28;20471;-64
2021/08/26 01:50:53;;;;;;;7.47;6.10;;;14.80;99.90;;;;;;6332882;28;20476;-64
2021/08/26 01:53:56;;;;;;;8.37;5.73;;;14.80;99.90;;;;;;6345784;28;20479;-64
2021/08/26 01:57:01;;;;;;;6.60;5.47;;;14.80;99.90;;;;;;6350729;28;20475;-64
2021/08/26 02:00:07;;;;;;;7.30;5.30;;;14.80;99.90;;;;;;6350072;28;20482;-64
2021/08/26 02:03:10;;;;;;;7.73;5.60;;;14.70;99.90;;;;;;6350636;28;20463;-64
2021/08/26 02:06:13;;;;;;;7.57;5.53;;;14.70;99.90;;;;;;6350208;28;20470;-64
2021/08/26 02:09:17;;;;;;;7.13;5.20;;;14.70;99.90;;;;;;6350268;28;20475;-64
2021/08/26 02:12:21;;;;;;;6.53;5.50;;;14.60;99.90;;;;;;6350028;27;20483;-64
2021/08/26 02:15:24;;;;;;;10.07;6.07;;;14.70;99.90;;;;;;6350303;28;20470;-64
2021/08/26 02:18:28;;;;;;;8.67;6.43;;;14.70;99.90;;;;;;6349549;28;20471;-64
2021/08/26 02:21:31;;;;;;;6.60;5.90;;;14.60;99.90;;;;;;6349676;27;20813;-64
2021/08/26 02:24:34;;;;;;;9.70;5.80;;;14.40;99.90;;;;;;6349717;28;20467;-64
2021/08/26 02:27:39;;;;;;;7.80;6.00;;;14.40;99.90;;;;;;6349467;28;20478;-64
2021/08/26 02:30:43;;;;;;;7.20;5.50;;;14.40;99.90;;;;;;6349792;28;20476;-64
2021/08/26 02:33:46;;;;;;;8.10;6.20;;;14.40;99.90;;;;;;6349673;28;20467;-64
2021/08/26 02:36:49;;;;;;;6.77;5.23;;;14.40;99.90;;;;;;6349763;28;20535;-64
2021/08/26 02:39:53;;;;;;;7.33;4.87;;;14.40;99.90;;;;;;6349318;28;20925;-64
2021/08/26 02:42:57;;;;;;;5.90;5.37;;;14.40;99.90;;;;;;6349446;28;20808;-64
2021/08/26 02:46:00;;;;;;;7.90;5.70;;;14.40;99.90;;;;;;6349136;28;20864;-64
2021/08/26 02:49:04;;;;;;;7.50;5.57;;;14.30;99.90;;;;;;6349528;28;20474;-64
2021/08/26 02:52:07;;;;;;;5.97;5.40;;;14.30;99.90;;;;;;6349014;28;20953;-64
2021/08/26 02:55:11;;;;;;;7.20;5.60;;;14.20;99.90;;;;;;6349551;28;20475;-64
2021/08/26 02:58:15;;;;;;;7.53;5.87;;;14.20;99.90;;;;;;6349404;28;20467;-64
2021/08/26 03:01:18;;;;;;;7.40;5.30;;;14.20;99.90;;;;;;6341414;28;20479;-64
2021/08/26 03:04:22;;;;;;;8.60;5.80;;;14.20;99.90;;;;;;6354181;27;20478;-64
2021/08/26 03:07:25;;;;;;;7.93;5.37;;;14.20;99.90;;;;;;6354041;27;20771;-64
2021/08/26 03:10:29;;;;;;;6.67;5.10;;;14.20;99.90;;;;;;6353965;28;20475;-64
2021/08/26 03:13:34;;;;;;;8.73;5.20;;;14.10;99.90;;;;;;6354226;28;20520;-64
2021/08/26 03:16:39;;;;;;;7.17;5.03;;;14.20;99.90;;;;;;6354032;28;20524;-64
2021/08/26 03:19:42;;;;;;;6.37;5.27;;;14.10;99.90;;;;;;6354015;28;20482;-64
2021/08/26 03:22:45;;;;;;;6.40;5.50;;;14.10;99.90;;;;;;6354404;27;20470;-64
2021/08/26 03:25:49;;;;;;;6.57;5.00;;;14.00;99.90;;;;;;6353733;27;20537;-64
2021/08/26 03:28:53;;;;;;;7.70;6.10;;;14.00;99.90;;;;;;6353684;28;20843;-64
2021/08/26 03:31:57;;;;;;;5.67;4.97;;;14.00;99.90;;;;;;6353443;27;20475;-64
2021/08/26 03:35:00;;;;;;;5.97;5.37;;;14.00;99.90;;;;;;6353485;28;20476;-64
2021/08/26 03:38:04;;;;;;;6.90;5.73;;;14.00;99.90;;;;;;6353170;28;20972;-64
2021/08/26 03:41:07;;;;;;;8.07;5.93;;;14.00;99.90;;;;;;6353735;28;20979;-64
2021/08/26 03:44:11;;;;;;;9.80;7.00;;;14.00;99.90;;;;;;6353423;28;20481;-64
2021/08/26 03:47:14;;;;;;;7.37;4.90;;;13.90;99.90;;;;;;6353462;28;20861;-64
2021/08/26 03:50:18;;;;;;;7.57;5.13;;;13.90;99.90;;;;;;6353172;28;20997;-64
2021/08/26 03:53:21;;;;;;;8.53;6.10;;;13.90;99.90;;;;;;6352802;28;20999;-64
2021/08/26 03:56:24;;;;;;;6.83;4.93;;;13.80;99.90;;;;;;6353085;27;20789;-64
2021/08/26 03:59:28;;;;;;;7.10;5.03;;;13.70;99.90;;;;;;6352920;28;20479;-64
2021/08/26 04:02:31;;;;;;;8.77;5.50;;;13.70;99.90;;;;;;6343982;27;20454;-64
2021/08/26 04:05:35;;;;;;;8.00;5.50;;;13.70;99.90;;;;;;6352645;28;20432;-64
2021/08/26 04:08:38;;;;;;;7.10;4.53;;;13.70;99.90;;;;;;6352984;28;20459;-64
2021/08/26 04:11:41;;;;;;;8.57;6.27;;;13.70;99.90;;;;;;6352362;28;20446;-64
2021/08/26 04:14:46;;;;;;;7.10;6.03;;;13.70;99.90;;;;;;6352293;27;20436;-64
2021/08/26 04:17:49;;;;;;;6.40;5.80;;;13.70;99.90;;;;;;6352183;28;20477;-64
2021/08/26 04:20:53;;;;;;;7.23;5.50;;;13.60;99.90;;;;;;6352317;27;20775;-64
2021/08/26 04:23:56;;;;;;;9.60;6.70;;;13.50;99.90;;;;;;6352545;28;20535;-64
2021/08/26 04:26:59;;;;;;;8.03;6.20;;;13.60;99.90;;;;;;6352655;28;20467;-64
2021/08/26 04:30:05;;;;;;;7.73;5.30;;;13.70;99.90;;;;;;6352323;28;20488;-64
2021/08/26 04:33:08;;;;;;;8.87;6.13;;;13.70;99.90;;;;;;6352726;28;20467;-64
2021/08/26 04:36:12;;;;;;;7.10;5.20;;;13.70;99.90;;;;;;6352533;28;20482;-64
2021/08/26 04:39:15;;;;;;;10.07;7.63;;;13.80;99.90;;;;;;6352072;28;20479;-64
2021/08/26 04:42:18;;;;;;;7.20;6.47;;;13.70;99.90;;;;;;6352667;28;20466;-64
2021/08/26 04:45:22;;;;;;;7.73;5.90;;;13.70;99.90;;;;;;6352076;28;20471;-64
2021/08/26 04:48:26;;;;;;;10.37;6.50;;;13.70;99.90;;;;;;6351784;28;20498;-64
2021/08/26 04:51:29;;;;;;;7.30;6.00;;;13.70;99.90;;;;;;6351589;28;20773;-64
2021/08/26 04:54:32;;;;;;;8.80;5.20;;;13.80;99.90;;;;;;6351730;28;20806;-64
2021/08/26 04:57:36;;;;;;;8.13;5.53;;;13.80;99.90;;;;;;6351427;28;20467;-64
2021/08/26 05:00:40;;;;;;;7.07;6.37;;;13.90;99.90;;;;;;6351490;27;20475;-64
2021/08/26 05:03:43;;;;;;;8.00;5.17;;;13.90;99.90;;;;;;6351469;28;20481;-64
2021/08/26 05:06:46;;;;;;;11.33;7.60;;;14.00;99.90;;;;;;6346948;28;20494;-64
2021/08/26 05:09:50;;;;;;;6.33;5.30;;;14.10;99.90;;;;;;6351683;28;21001;-64
2021/08/26 05:12:53;;;;;;;8.13;6.93;;;14.10;99.90;;;;;;6351339;28;20486;-64
2021/08/26 05:15:57;;;;;;;11.27;5.37;;;14.20;99.90;;;;;;6351593;28;20471;-64
2021/08/26 05:19:00;;;;;;;11.07;6.13;;;14.20;99.90;;;;;;6351253;28;20505;-64
2021/08/26 05:22:04;;;;;;;8.30;6.70;;;14.20;99.90;;;;;;6351208;28;20462;-64
2021/08/26 05:25:08;;;;;;;9.50;6.73;;;14.30;99.90;;;;;;6350022;28;20470;-64
2021/08/26 05:28:11;;;;;;;7.50;6.40;;;14.40;99.90;;;;;;6351100;28;20471;-64
2021/08/26 05:31:16;;;;;;;7.80;6.73;;;14.50;99.90;;;;;;6350786;28;20486;-64
2021/08/26 05:34:20;;;;;;;8.00;6.40;;;14.50;99.90;;;;;;6350912;28;20478;-64
2021/08/26 05:37:23;;;;;;;9.10;6.93;;;14.60;99.90;;;;;;6350354;28;20967;-64
2021/08/26 05:40:26;;;;;;;7.17;5.80;;;14.80;99.90;;;;;;6350834;28;20467;-64
2021/08/26 05:43:29;;;;;;;8.33;6.60;;;15.00;99.90;;;;;;6350812;28;20465;-64
2021/08/26 05:46:33;;;;;;;10.00;6.80;;;15.30;99.90;;;;;;6350631;28;20486;-64
2021/08/26 05:49:37;;;;;;;6.23;5.63;;;15.60;99.90;;;;;;6350290;28;20476;-64
2021/08/26 05:52:40;;;;;;;11.17;6.90;;;16.00;99.90;;;;;;6350171;28;20813;-65
2021/08/26 05:55:43;;;;;;;11.10;7.07;;;16.10;99.50;;;;;;6350217;28;20542;-64
2021/08/26 05:58:46;;;;;;;10.67;7.80;;;16.10;99.30;;;;;;6350111;28;20472;-64
2021/08/26 06:01:51;;;;;;;11.13;7.20;;;16.00;99.20;;;;;;6350391;28;20466;-64
2021/08/26 06:04:54;;;;;;;12.13;7.27;;;16.20;99.70;;;;;;6350169;28;20464;-64
2021/08/26 06:07:57;;;;;;;10.43;7.63;;;16.80;98.30;;;;;;6350058;28;20471;-64
2021/08/26 06:11:01;;;;;;;8.97;7.27;;;16.80;97.70;;;;;;6349788;28;20471;-64
2021/08/26 06:14:04;;;;;;;11.90;7.63;;;16.80;97.90;;;;;;6349794;28;20529;-64
2021/08/26 06:17:08;;;;;;;8.67;6.60;;;17.00;97.90;;;;;;6349382;28;21001;-65
2021/08/26 06:20:14;;;;;;;10.57;7.60;;;17.30;97.60;;;;;;6349820;28;20472;-64
2021/08/26 06:23:17;;;;;;;10.83;7.70;;;18.20;96.80;;;;;;6349413;28;20470;-64
2021/08/26 06:26:21;;;;;;;11.17;6.97;;;18.60;95.30;;;;;;6349830;28;20474;-65
2021/08/26 06:29:24;;;;;;;8.63;7.17;;;19.60;93.70;;;;;;6349428;28;20236;-64
2021/08/26 06:32:28;;;;;;;11.13;9.10;;;19.90;92.10;;;;;;6349429;28;20290;-64
2021/08/26 06:35:32;;;;;;;11.13;8.47;;;20.60;91.50;;;;;;6349244;28;20230;-66
2021/08/26 06:38:35;;;;;;;10.50;7.77;;;22.10;87.90;;;;;;6349517;28;20226;-64
2021/08/26 06:41:38;;;;;;;12.90;8.20;;;23.20;81.50;;;;;;6349646;28;20212;-64
2021/08/26 06:44:41;;;;;;;13.03;8.17;;;24.20;77.00;;;;;;6349606;28;20209;-64
2021/08/26 06:47:46;;;;;;;9.83;8.40;;;25.10;71.10;;;;;;6349705;28;20311;-64
2021/08/26 06:50:49;;;;;;;10.10;8.27;;;24.90;68.30;;;;;;6349032;28;20205;-64
2021/08/26 06:53:52;;;;;;;10.60;8.27;;;24.30;68.30;;;;;;6349112;28;20229;-64
2021/08/26 06:56:55;;;;;;;12.00;7.60;;;23.40;69.90;;;;;;6349124;28;20229;-64
2021/08/26 06:59:58;;;;;;;13.67;8.93;;;22.70;72.20;;;;;;6349184;28;20225;-64
2021/08/26 07:03:03;;;;;;;10.40;8.90;;;22.20;75.80;;;;;;6349165;28;20296;-64
2021/08/26 07:06:06;;;;;;;12.50;8.77;;;23.10;75.40;;;;;;6349617;28;20233;-65
2021/08/26 07:09:09;;;;;;;11.00;8.57;;;25.30;70.30;;;;;;6348784;28;20236;-65
2021/08/26 07:12:12;;;;;;;10.97;8.63;;;27.30;62.30;;;;;;6349504;28;20224;-65
2021/08/26 07:15:16;;;;;;;9.90;8.40;;;27.50;58.20;;;;;;6344570;28;20220;-65
2021/08/26 07:18:20;;;;;;;12.83;8.67;;;28.60;55.80;;;;;;6349079;28;20228;-65
2021/08/26 07:21:23;;;;;;;9.73;8.63;;;30.50;51.60;;;;;;6349289;28;20221;-65
2021/08/26 07:24:26;;;;;;;9.37;8.37;;;32.00;46.90;;;;;;6349085;28;20693;-65
2021/08/26 07:27:29;;;;;;;9.07;7.97;;;32.90;44.70;;;;;;6349272;28;20220;-65
2021/08/26 07:30:32;;;;;;;10.38;8.10;;;33.50;43.10;;;;;;6348798;28;20228;-65
2021/08/26 07:33:37;;;;;;;9.02;8.23;;;33.80;41.00;;;;;;6349023;28;20225;-65
2021/08/26 07:36:40;;;;;;;9.15;7.70;;;33.90;40.20;;;;;;6348581;28;20603;-65
2021/08/26 07:39:44;;;;;;;8.52;7.63;;;32.80;39.70;;;;;;6349006;28;20236;-65
2021/08/26 07:42:47;;;;;;;8.93;7.50;;;31.00;42.20;;;;;;6348854;28;20225;-65
2021/08/26 07:45:50;;;;;;;9.33;7.53;;;29.30;44.40;;;;;;6348744;28;20236;-65
2021/08/26 07:48:55;;;;;;;8.73;7.83;;;28.00;46.70;;;;;;6350773;28;20764;-65
2021/08/26 07:51:58;;;;;;;8.10;7.13;;;27.10;48.50;;;;;;6353299;27;20225;-65
2021/08/26 07:55:02;;;;;;;10.43;8.10;;;26.70;50.50;;;;;;6353212;28;20233;-65
2021/08/26 07:58:05;;;;;;;9.30;7.10;;;26.70;51.00;;;;;;6352837;28;20229;-65
2021/08/26 08:01:09;;;;;;;8.30;7.43;;;26.80;51.00;;;;;;6353477;28;20551;-65
2021/08/26 08:04:14;;;;;;;8.70;6.40;;;26.80;51.10;;;;;;6353280;28;20232;-65
2021/08/26 08:07:17;;;;;;;12.30;7.87;;;26.70;51.00;;;;;;6352929;27;20239;-65
2021/08/26 08:10:20;;;;;;;8.10;6.50;;;26.50;51.00;;;;;;6352862;28;20220;-65
2021/08/26 08:13:23;;;;;;;8.20;7.40;;;26.20;51.80;;;;;;6352803;28;20619;-65
2021/08/26 08:16:26;;;;;;;10.50;7.63;;;26.00;52.70;;;;;;6352560;28;20221;-65
2021/08/26 08:19:31;;;;;;;8.27;7.47;;;25.80;53.40;;;;;;6343105;28;20240;-65
2021/08/26 08:22:34;;;;;;;11.40;6.80;;;25.70;53.30;;;;;;6352408;27;20241;-65
2021/08/26 08:25:37;;;;;;;11.00;7.00;;;25.50;53.80;;;;;;6352890;28;20240;-65
2021/08/26 08:28:40;;;;;;;10.07;7.03;;;25.20;53.40;;;;;;6351983;28;20228;-65
2021/08/26 08:31:43;;;;;;;7.70;6.90;;;24.80;54.60;;;;;;6352157;28;20671;-65
2021/08/26 08:34:48;;;;;;;10.50;6.90;;;24.60;55.50;;;;;;6352186;28;20343;-65
2021/08/26 08:37:51;;;;;;;8.03;7.23;;;25.20;56.60;;;;;;6352214;28;20225;-65
2021/08/26 08:40:55;;;;;;;9.50;7.27;;;26.50;53.80;;;;;;6352222;28;20221;-65
2021/08/26 08:43:58;;;;;;;8.80;7.30;;;28.20;51.00;;;;;;6352572;28;20229;-66
2021/08/26 08:47:02;;;;;;;9.10;8.07;;;30.10;46.40;;;;;;6330525;28;20229;-66
2021/08/26 08:50:08;;;;;;;10.80;8.00;;;29.30;45.90;;;;;;6328535;28;20226;-64
2021/08/26 08:53:13;;;;;;;7.20;6.50;;;28.80;48.50;;;;;;6300233;28;20231;-64
2021/08/26 08:56:17;;;;;;;9.43;8.37;;;31.00;44.80;;;;;;6313045;28;20572;-68
2021/08/26 08:59:21;;;;;;;10.97;8.43;;;31.10;43.70;;;;;;6324031;28;20240;-65
2021/08/26 09:02:27;;;;;;;10.30;8.60;;;29.80;45.20;;;;;;6323960;28;20782;-65
2021/08/26 09:05:53;;;;;;;9.20;8.30;;;28.40;47.50;;;;;;6304172;28;20664;-66
2021/08/26 09:09:05;;;;;;;13.50;8.77;;;27.30;49.50;;;;;;6298677;28;20238;-65
2021/08/26 09:12:09;;;;;;;12.10;7.77;;;26.90;51.30;;;;;;6299018;28;20562;-66
2021/08/26 09:15:14;;;;;;;8.87;7.97;;;27.30;51.60;;;;;;6298577;28;20229;-65
2021/08/26 09:18:19;;;;;;;13.73;7.40;;;28.10;50.10;;;;;;6298629;28;20230;-66
2021/08/26 09:21:38;;;;;;;9.47;7.10;;;30.30;47.30;;;;;;6303435;28;20236;-63
2021/08/26 09:24:45;;;;;;;14.73;8.63;;;31.60;43.90;;;;;;6333117;28;20735;-64
2021/08/26 09:27:48;;;;;;;8.70;7.80;;;31.60;43.40;;;;;;6334568;28;20236;-64
2021/08/26 09:31:09;;;;;;;11.23;8.73;;;31.30;42.60;;;;;;6335093;27;20598;-63
2021/08/26 09:34:15;;;;;;;9.57;7.90;;;29.80;44.40;;;;;;6323308;28;20622;-64
2021/08/26 09:37:19;;;;;;;10.83;7.73;;;28.00;47.40;;;;;;6330420;28;20237;-64
2021/08/26 09:40:24;;;;;;;8.43;7.63;;;27.40;49.00;;;;;;6336017;28;20225;-63
2021/08/26 09:43:33;;;;;;;8.40;6.90;;;26.80;50.20;;;;;;6333424;28;20226;-63
2021/08/26 09:46:36;;;;;;;7.03;6.20;;;26.70;50.70;;;;;;6339125;28;20224;-63
2021/08/26 09:49:41;;;;;;;8.00;7.23;;;26.80;50.20;;;;;;6331935;28;20225;-63
2021/08/26 09:52:53;;;;;;;7.70;6.90;;;26.70;51.20;;;;;;6331834;28;20226;-63
2021/08/26 09:56:02;;;;;;;10.23;7.03;;;26.40;51.70;;;;;;6333024;28;20297;-63
2021/08/26 09:59:06;;;;;;;7.80;7.00;;;26.30;51.80;;;;;;6331489;28;20244;-63
2021/08/26 10:02:10;;;;;;;11.67;7.33;;;26.30;51.20;;;;;;6336802;28;20221;-63
2021/08/26 10:05:13;;;;;;;8.27;6.77;;;26.40;51.70;;;;;;6336299;28;20213;-63
2021/08/26 10:08:18;;;;;;;7.87;7.07;;;26.40;52.00;;;;;;6333052;28;20236;-63
2021/08/26 10:11:22;;;;;;;8.10;6.93;;;26.30;52.10;;;;;;6324728;28;20217;-63
2021/08/26 10:14:26;;;;;;;13.17;6.83;;;26.20;52.10;;;;;;6335146;28;20677;-63
2021/08/26 10:17:31;;;;;;;7.57;6.40;;;26.20;52.10;;;;;;6334956;28;20682;-66
2021/08/26 10:20:36;;;;;;;7.70;6.90;;;26.30;52.10;;;;;;6335222;28;20236;-63
2021/08/26 10:23:45;;;;;;;8.50;7.23;;;26.40;52.40;;;;;;6340131;28;20202;-63
2021/08/26 10:26:52;;;;;;;7.40;6.70;;;26.40;52.10;;;;;;6329458;28;20213;-63
2021/08/26 10:29:55;;;;;;;7.23;6.50;;;26.20;52.10;;;;;;6330192;28;20614;-63
2021/08/26 10:33:06;;;;;;;10.57;7.13;;;26.00;52.80;;;;;;6332718;28;20228;-63
2021/08/26 10:36:13;;;;;;;8.33;6.40;;;25.80;53.40;;;;;;6321243;28;20269;-63
2021/08/26 10:39:32;;;;;;;7.73;6.70;;;25.80;53.90;;;;;;6336921;28;20228;-63
2021/08/26 10:42:45;;;;;;;8.30;6.80;;;25.90;53.90;;;;;;6328813;28;20653;-63
2021/08/26 10:45:51;;;;;;;8.13;6.63;;;25.80;54.00;;;;;;6321372;28;20222;-63
2021/08/26 10:49:01;;;;;;;8.93;6.30;;;25.90;54.50;;;;;;6321843;28;20233;-63
2021/08/26 10:52:04;;;;;;;7.97;7.17;;;26.20;53.70;;;;;;6321583;28;20947;-64
2021/08/26 10:55:28;;;;;;;8.50;6.40;;;26.40;53.70;;;;;;6315231;28;20238;-66
2021/08/26 10:58:38;;;;;;;8.30;6.97;;;26.40;53.40;;;;;;6304728;28;20226;-65
2021/08/26 11:01:43;;;;;;;7.40;6.57;;;26.30;53.10;;;;;;6321955;28;20729;-66
2021/08/26 11:04:47;;;;;;;6.70;5.57;;;26.10;53.80;;;;;;6321836;28;20229;-65
2021/08/26 11:07:51;;;;;;;6.87;6.13;;;26.00;54.20;;;;;;6321701;28;20229;-67
2021/08/26 11:10:56;;;;;;;6.67;6.07;;;25.90;54.60;;;;;;6321503;28;20244;-66
2021/08/26 11:14:26;;;;;;;7.60;6.70;;;25.60;55.40;;;;;;6321695;28;20222;-65
2021/08/26 11:17:35;;;;;;;6.67;5.97;;;25.40;56.10;;;;;;6319574;28;20260;-63
2021/08/26 11:20:43;;;;;;;7.30;6.60;;;25.40;55.50;;;;;;6301060;28;20233;-63
2021/08/26 11:23:47;;;;;;;12.23;7.10;;;25.30;56.00;;;;;;6324593;28;20201;-63
2021/08/26 11:26:53;;;;;;;7.10;6.40;;;26.00;55.10;;;;;;6339317;28;20315;-63
2021/08/26 11:29:57;;;;;;;6.90;5.90;;;26.50;54.10;;;;;;6338102;28;20671;-62
2021/08/26 11:33:00;;;;;;;6.27;5.63;;;27.00;53.30;;;;;;6337016;28;20237;-64
2021/08/26 11:36:12;;;;;;;10.57;6.20;;;27.30;52.30;;;;;;6335173;28;20240;-62
2021/08/26 11:39:15;;;;;;;8.33;6.70;;;27.30;52.10;;;;;;6336590;27;20232;-62
2021/08/26 11:42:29;;;;;;;9.27;6.80;;;27.30;52.00;;;;;;6338174;28;20217;-62
2021/08/26 11:45:34;;;;;;;7.10;6.00;;;27.20;52.40;;;;;;6333421;28;20221;-62
2021/08/26 11:48:51;;;;;;;7.90;6.33;;;27.20;51.80;;;;;;6338647;28;20240;-62
2021/08/26 11:52:05;;;;;;;5.80;5.27;;;26.90;51.90;;;;;;6338576;28;20221;-62
2021/08/26 11:55:09;;;;;;;8.67;6.60;;;26.50;51.40;;;;;;6333115;28;20239;-62
2021/08/26 11:58:15;;;;;;;6.97;5.73;;;26.10;52.80;;;;;;6336253;28;20298;-62
2021/08/26 12:01:22;;;;;;;7.00;6.20;;;25.70;54.00;;;;;;6334075;28;20287;-62
2021/08/26 12:04:35;;;;;;;7.07;6.37;;;25.50;55.00;;;;;;6335052;28;20294;-62
2021/08/26 12:07:40;;;;;;;7.10;6.40;;;25.50;55.60;;;;;;6341449;28;20229;-62
2021/08/26 12:10:45;;;;;;;7.03;6.30;;;25.70;55.20;;;;;;6337562;28;20268;-62
2021/08/26 12:13:50;;;;;;;7.87;7.07;;;25.90;55.00;;;;;;6342174;28;20217;-62
2021/08/26 12:16:53;;;;;;;7.60;5.90;;;26.00;55.30;;;;;;6350502;28;20241;-62
2021/08/26 12:19:57;;;;;;;7.23;6.53;;;26.20;54.80;;;;;;6350193;28;20233;-62
2021/08/26 12:23:01;;;;;;;6.10;5.50;;;26.40;54.40;;;;;;6332173;28;20225;-62
2021/08/26 12:26:05;;;;;;;7.03;6.33;;;26.40;54.70;;;;;;6325010;28;20225;-62
2021/08/26 12:29:10;;;;;;;6.77;6.07;;;26.30;54.80;;;;;;6325081;28;20234;-62
2021/08/26 12:32:40;;;;;;;7.30;6.60;;;26.20;54.90;;;;;;6324707;28;20233;-62
2021/08/26 12:35:50;;;;;;;6.37;5.77;;;26.10;55.70;;;;;;6288555;28;20213;-63
2021/08/26 12:38:53;;;;;;;6.40;5.77;;;26.30;55.50;;;;;;6324491;28;20237;-62
2021/08/26 12:42:04;;;;;;;6.20;5.63;;;26.40;55.40;;;;;;6325143;28;20240;-62
2021/08/26 12:45:20;;;;;;;7.10;6.40;;;26.80;55.40;;;;;;6336467;28;20314;-64
2021/08/26 12:48:25;;;;;;;5.73;4.90;;;27.10;55.20;;;;;;6336432;28;20240;-66
2021/08/26 12:51:29;;;;;;;7.07;6.37;;;27.30;55.00;;;;;;6324425;28;20225;-66
2021/08/26 12:54:32;;;;;;;8.63;7.33;;;27.20;54.70;;;;;;6329279;28;20228;-63
2021/08/26 12:57:35;;;;;;;7.20;6.30;;;27.10;54.90;;;;;;6323836;28;20713;-66
2021/08/26 13:00:41;;;;;;;7.53;6.83;;;26.80;55.30;;;;;;6324018;28;20252;-64
2021/08/26 13:03:46;;;;;;;7.30;5.67;;;26.60;55.90;;;;;;6320504;28;20222;-67
2021/08/26 13:06:51;;;;;;;7.17;6.47;;;26.50;56.40;;;;;;6298961;28;20237;-64
2021/08/26 13:09:58;;;;;;;7.13;6.43;;;26.40;57.30;;;;;;6298388;28;20237;-64
2021/08/26 13:13:19;;;;;;;8.40;6.87;;;26.40;57.10;;;;;;6322657;28;20221;-63
2021/08/26 13:16:24;;;;;;;7.57;6.87;;;26.20;57.50;;;;;;6348854;28;20236;-66
2021/08/26 13:19:28;;;;;;;6.80;6.10;;;25.90;58.00;;;;;;6349032;28;20677;-65
2021/08/26 13:22:32;;;;;;;7.57;6.87;;;25.60;59.10;;;;;;6334465;28;20567;-66
2021/08/26 13:25:36;;;;;;;7.40;5.93;;;25.30;60.20;;;;;;6323418;28;20699;-66
2021/08/26 13:28:39;;;;;;;6.93;6.27;;;25.10;61.20;;;;;;6312454;28;20558;-64
2021/08/26 13:31:44;;;;;;;6.70;6.10;;;24.80;62.50;;;;;;6315861;28;20233;-64
2021/08/26 13:34:48;;;;;;;7.70;5.67;;;24.50;62.80;;;;;;6298085;28;20238;-65
2021/08/26 13:37:51;;;;;;;7.13;6.53;;;24.30;63.50;;;;;;6314362;28;20234;-65
2021/08/26 13:40:54;;;;;;;7.57;6.33;;;24.10;63.80;;;;;;6303774;28;20226;-65
2021/08/26 13:43:58;;;;;;;8.73;6.50;;;23.90;64.70;;;;;;6298387;28;20257;-64
2021/08/26 13:47:02;;;;;;;6.30;5.70;;;23.90;65.50;;;;;;6320739;28;20242;-64
2021/08/26 13:50:07;;;;;;;6.17;5.37;;;23.90;67.00;;;;;;6322423;28;20316;-65
2021/08/26 13:53:10;;;;;;;6.50;5.80;;;23.90;69.00;;;;;;6322621;28;20683;-65
2021/08/26 13:56:13;;;;;;;6.47;5.77;;;23.80;70.10;;;;;;6322358;28;20230;-65
2021/08/26 13:59:17;;;;;;;7.47;6.40;;;23.80;69.20;;;;;;6337955;28;20233;-68
2021/08/26 14:02:21;;;;;;;6.93;6.23;;;23.80;69.40;;;;;;6336473;28;20233;-66
2021/08/26 14:05:25;;;;;;;6.90;5.67;;;23.80;69.80;;;;;;6322573;28;20241;-64
2021/08/26 14:08:28;;;;;;;8.37;5.83;;;23.80;71.00;;;;;;6322195;28;20233;-64
2021/08/26 14:11:32;;;;;;;7.30;6.50;;;23.70;71.00;;;;;;6322528;28;20229;-64
2021/08/26 14:14:35;;;;;;;8.10;6.83;;;23.50;70.90;;;;;;6320653;28;20608;-64
2021/08/26 14:17:40;;;;;;;8.10;5.33;;;23.40;71.00;;;;;;6322647;28;20221;-64
2021/08/26 14:20:43;;;;;;;7.03;6.33;;;23.30;70.80;;;;;;6322337;28;20648;-64
2021/08/26 14:23:47;;;;;;;5.67;4.83;;;23.20;71.30;;;;;;6322694;28;20202;-64
2021/08/26 14:26:51;;;;;;;6.83;5.67;;;23.10;71.80;;;;;;6322345;28;20218;-64
2021/08/26 14:29:54;;;;;;;6.83;5.17;;;22.90;72.50;;;;;;6322519;28;20240;-64
2021/08/26 14:32:58;;;;;;;6.33;5.20;;;22.90;73.70;;;;;;6322070;28;20601;-64
2021/08/26 14:36:02;;;;;;;6.40;5.73;;;22.70;75.30;;;;;;6313998;28;20230;-64
2021/08/26 14:39:05;;;;;;;5.83;5.33;;;22.60;76.00;;;;;;6296617;28;20230;-64
2021/08/26 14:42:09;;;;;;;6.67;6.10;;;22.50;76.80;;;;;;6292136;28;20317;-64
2021/08/26 14:45:12;;;;;;;6.10;5.50;;;22.40;78.60;;;;;;6296970;28;20231;-64
2021/08/26 14:48:17;;;;;;;6.40;5.80;;;22.30;80.00;;;;;;6296677;28;20234;-64
2021/08/26 14:51:20;;;;;;;7.57;6.87;;;22.20;81.10;;;;;;6297164;28;20218;-64
2021/08/26 14:54:23;;;;;;;6.00;5.40;;;22.10;82.20;;;;;;6296174;28;20218;-64
2021/08/26 14:57:26;;;;;;;6.97;5.90;;;22.10;84.40;;;;;;6298713;28;20226;-64
2021/08/26 15:00:29;;;;;;;8.60;7.70;;;22.00;85.50;;;;;;6326696;28;20225;-64
2021/08/26 15:03:34;;;;;;;6.30;5.77;;;22.00;86.30;;;;;;6327237;28;20232;-64
2021/08/26 15:06:37;;;;;;;6.23;5.53;;;22.00;86.90;;;;;;6326868;28;20245;-64
2021/08/26 15:09:40;;;;;;;7.47;5.33;;;21.90;87.20;;;;;;6326491;28;20687;-64
2021/08/26 15:12:46;;;;;;;6.97;5.47;;;21.80;87.80;;;;;;6326621;28;20240;-64
2021/08/26 15:15:50;;;;;;;6.33;5.73;;;21.80;89.30;;;;;;6326647;28;20241;-64
2021/08/26 15:18:54;;;;;;;7.03;6.07;;;21.70;90.20;;;;;;6326747;28;20275;-64
2021/08/26 15:21:58;;;;;;;7.43;5.40;;;21.60;90.80;;;;;;6326080;28;20691;-64
2021/08/26 15:25:01;;;;;;;7.43;5.97;;;21.50;91.60;;;;;;6326533;28;20233;-68
2021/08/26 15:28:05;;;;;;;7.40;6.60;;;21.40;91.00;;;;;;6326071;28;20241;-62
2021/08/26 15:31:08;;;;;;;10.90;6.53;;;21.30;91.50;;;;;;6326275;28;20229;-62
2021/08/26 15:34:13;;;;;;;6.43;5.77;;;21.20;92.30;;;;;;6325990;28;20576;-63
2021/08/26 15:37:16;;;;;;;8.00;7.17;;;21.10;93.00;;;;;;6308057;28;20227;-62
2021/08/26 15:40:21;;;;;;;5.70;5.20;;;21.00;93.50;;;;;;6304957;28;20222;-62
2021/08/26 15:43:24;;;;;;;6.47;5.87;;;20.90;94.10;;;;;;6326261;28;20279;-63
2021/08/26 15:46:27;;;;;;;7.60;6.77;;;20.90;94.50;;;;;;6321565;28;20569;-63
2021/08/26 15:49:37;;;;;;;6.17;5.63;;;20.80;95.20;;;;;;6336019;28;20232;-63
2021/08/26 15:52:42;;;;;;;6.93;6.13;;;20.70;96.10;;;;;;6334548;28;20238;-63
2021/08/26 15:55:48;;;;;;;6.23;5.63;;;20.70;97.00;;;;;;6337919;28;20563;-64
2021/08/26 15:58:54;;;;;;;6.70;6.10;;;20.70;98.00;;;;;;6338044;28;20237;-64
2021/08/26 16:02:01;;;;;;;7.20;6.50;;;20.60;98.30;;;;;;6336445;28;20229;-64
2021/08/26 16:05:07;;;;;;;6.47;5.87;;;20.60;98.80;;;;;;6335604;28;20222;-63